createdAt,value
2018-02-09T00:00:18.960Z,1015.91
2018-02-09T00:01:18.906Z,1015.94
2018-02-09T00:02:18.850Z,1015.90
2018-02-09T00:03:18.798Z,1015.87
2018-02-09T00:04:18.741Z,1015.87
2018-02-09T00:05:18.683Z,1015.87
2018-02-09T00:06:18.629Z,1015.86
2018-02-09T00:07:18.573Z,1015.87
2018-02-09T00:08:18.516Z,1015.86
2018-02-09T00:09:18.462Z,1015.86
2018-02-09T00:10:18.413Z,1015.85
2018-02-09T00:11:18.352Z,1015.89
2018-02-09T00:12:18.295Z,1015.87
2018-02-09T00:13:18.240Z,1015.91
2018-02-09T00:14:18.192Z,1015.93
2018-02-09T00:15:18.130Z,1015.95
2018-02-09T00:16:18.080Z,1015.93
2018-02-09T00:17:18.020Z,1015.92
2018-02-09T00:18:17.963Z,1015.91
2018-02-09T00:19:17.909Z,1015.90
2018-02-09T00:20:17.855Z,1015.89
2018-02-09T00:21:17.798Z,1015.85
2018-02-09T00:22:17.754Z,1015.86
2018-02-09T00:23:17.688Z,1015.88
2018-02-09T00:24:17.632Z,1015.88
2018-02-09T00:25:17.582Z,1015.84
2018-02-09T00:26:17.622Z,1015.88
2018-02-09T00:27:17.466Z,1015.89
2018-02-09T00:28:17.411Z,1015.86
2018-02-09T00:29:17.356Z,1015.89
2018-02-09T00:30:17.301Z,1015.85
2018-02-09T00:31:17.245Z,1015.90
2018-02-09T00:32:17.189Z,1015.89
2018-02-09T00:33:17.134Z,1015.92
2018-02-09T00:34:17.080Z,1015.92
2018-02-09T00:35:17.025Z,1015.94
2018-02-09T00:36:16.968Z,1015.94
2018-02-09T00:37:16.913Z,1015.93
2018-02-09T00:38:16.858Z,1015.90
2018-02-09T00:39:16.807Z,1015.91
2018-02-09T00:40:16.747Z,1015.88
2018-02-09T00:41:17.142Z,1015.87
2018-02-09T00:42:17.037Z,1015.86
2018-02-09T00:43:16.582Z,1015.89
2018-02-09T00:44:16.927Z,1015.88
2018-02-09T00:45:16.820Z,1015.85
2018-02-09T00:46:16.716Z,1015.86
2018-02-09T00:47:16.616Z,1015.83
2018-02-09T00:48:16.454Z,1015.84
2018-02-09T00:49:16.498Z,1015.84
2018-02-09T00:50:16.344Z,1015.78
2018-02-09T00:51:16.238Z,1015.83
2018-02-09T00:52:16.132Z,1015.81
2018-02-09T00:53:16.027Z,1015.76
2018-02-09T00:54:16.022Z,1015.77
2018-02-09T00:55:15.916Z,1015.76
2018-02-09T00:56:15.860Z,1015.79
2018-02-09T00:57:15.808Z,1015.76
2018-02-09T00:58:15.752Z,1015.78
2018-02-09T00:59:15.695Z,1015.75
2018-02-09T01:00:15.638Z,1015.77
2018-02-09T01:01:15.584Z,1015.76
2018-02-09T01:02:15.527Z,1015.75
2018-02-09T01:03:15.473Z,1015.73
2018-02-09T01:04:15.416Z,1015.76
2018-02-09T01:05:15.361Z,1015.74
2018-02-09T01:06:15.306Z,1015.71
2018-02-09T01:07:15.254Z,1015.75
2018-02-09T01:08:15.195Z,1015.73
2018-02-09T01:09:15.140Z,1015.71
2018-02-09T01:10:15.085Z,1015.76
2018-02-09T01:11:15.030Z,1015.78
2018-02-09T01:12:14.974Z,1015.78
2018-02-09T01:13:14.919Z,1015.76
2018-02-09T01:14:14.864Z,1015.77
2018-02-09T01:15:14.808Z,1015.74
2018-02-09T01:16:14.753Z,1015.74
2018-02-09T01:17:14.696Z,1015.70
2018-02-09T01:18:14.642Z,1015.75
2018-02-09T01:19:14.587Z,1015.71
2018-02-09T01:20:14.531Z,1015.71
2018-02-09T01:21:14.476Z,1015.67
2018-02-09T01:22:14.420Z,1015.70
2018-02-09T01:23:14.366Z,1015.67
2018-02-09T01:24:14.310Z,1015.63
2018-02-09T01:25:14.254Z,1015.65
2018-02-09T01:26:14.199Z,1015.66
2018-02-09T01:27:14.144Z,1015.65
2018-02-09T01:28:14.088Z,1015.67
2018-02-09T01:29:14.039Z,1015.69
2018-02-09T01:30:13.977Z,1015.66
2018-02-09T01:31:13.922Z,1015.64
2018-02-09T01:32:13.866Z,1015.64
2018-02-09T01:33:13.809Z,1015.60
2018-02-09T01:34:13.755Z,1015.66
2018-02-09T01:35:13.700Z,1015.61
2018-02-09T01:36:13.644Z,1015.59
2018-02-09T01:37:13.588Z,1015.60
2018-02-09T01:38:13.533Z,1015.62
2018-02-09T01:39:13.478Z,1015.61
2018-02-09T01:40:13.522Z,1015.58
2018-02-09T01:41:13.367Z,1015.59
2018-02-09T01:42:13.311Z,1015.60
2018-02-09T01:43:13.260Z,1015.60
2018-02-09T01:44:13.199Z,1015.57
2018-02-09T01:45:13.144Z,1015.53
2018-02-09T01:46:13.089Z,1015.54
2018-02-09T01:47:13.033Z,1015.53
2018-02-09T01:48:12.977Z,1015.52
2018-02-09T01:49:12.922Z,1015.44
2018-02-09T01:50:12.865Z,1015.46
2018-02-09T01:51:12.810Z,1015.46
2018-02-09T01:52:12.754Z,1015.41
2018-02-09T01:53:12.698Z,1015.43
2018-02-09T01:54:12.643Z,1015.43
2018-02-09T01:55:12.591Z,1015.41
2018-02-09T01:56:12.531Z,1015.36
2018-02-09T01:57:12.476Z,1015.37
2018-02-09T01:58:12.421Z,1015.35
2018-02-09T01:59:12.365Z,1015.37
2018-02-09T02:00:12.308Z,1015.38
2018-02-09T02:01:12.255Z,1015.38
2018-02-09T02:02:12.197Z,1015.33
2018-02-09T02:03:12.142Z,1015.40
2018-02-09T02:04:12.086Z,1015.38
2018-02-09T02:05:12.030Z,1015.35
2018-02-09T02:06:11.974Z,1015.38
2018-02-09T02:07:11.919Z,1015.39
2018-02-09T02:08:11.870Z,1015.36
2018-02-09T02:09:11.807Z,1015.32
2018-02-09T02:10:11.751Z,1015.35
2018-02-09T02:11:11.696Z,1015.27
2018-02-09T02:12:11.646Z,1015.25
2018-02-09T02:13:11.584Z,1015.27
2018-02-09T02:14:11.528Z,1015.25
2018-02-09T02:15:11.473Z,1015.30
2018-02-09T02:16:11.417Z,1015.33
2018-02-09T02:17:11.361Z,1015.33
2018-02-09T02:18:11.316Z,1015.32
2018-02-09T02:19:11.250Z,1015.30
2018-02-09T02:20:11.193Z,1015.28
2018-02-09T02:21:11.138Z,1015.31
2018-02-09T02:22:11.089Z,1015.29
2018-02-09T02:23:11.027Z,1015.27
2018-02-09T02:24:10.970Z,1015.29
2018-02-09T02:25:10.915Z,1015.25
2018-02-09T02:26:10.859Z,1015.28
2018-02-09T02:27:10.805Z,1015.29
2018-02-09T02:28:10.746Z,1015.27
2018-02-09T02:29:10.696Z,1015.24
2018-02-09T02:30:10.635Z,1015.27
2018-02-09T02:31:10.579Z,1015.24
2018-02-09T02:32:10.523Z,1015.22
2018-02-09T02:33:10.467Z,1015.17
2018-02-09T02:34:10.411Z,1015.21
2018-02-09T02:35:10.355Z,1015.22
2018-02-09T02:36:10.299Z,1015.20
2018-02-09T02:37:10.243Z,1015.18
2018-02-09T02:38:10.186Z,1015.21
2018-02-09T02:39:10.131Z,1015.17
2018-02-09T02:40:10.077Z,1015.18
2018-02-09T02:41:10.020Z,1015.18
2018-02-09T02:42:09.962Z,1015.16
2018-02-09T02:43:09.907Z,1015.15
2018-02-09T02:44:09.850Z,1015.15
2018-02-09T02:45:09.800Z,1015.12
2018-02-09T02:46:09.740Z,1015.14
2018-02-09T02:47:09.689Z,1015.07
2018-02-09T02:48:09.625Z,1015.11
2018-02-09T02:49:09.569Z,1015.09
2018-02-09T02:50:09.513Z,1015.06
2018-02-09T02:51:09.458Z,1015.08
2018-02-09T02:52:09.402Z,1015.07
2018-02-09T02:53:09.346Z,1015.08
2018-02-09T02:54:09.290Z,1015.05
2018-02-09T02:55:09.234Z,1015.04
2018-02-09T02:56:09.177Z,1014.99
2018-02-09T02:57:09.121Z,1015.01
2018-02-09T02:58:09.066Z,1015.01
2018-02-09T02:59:09.010Z,1015.07
2018-02-09T03:00:08.954Z,1015.03
2018-02-09T03:01:08.899Z,1015.04
2018-02-09T03:02:08.841Z,1015.02
2018-02-09T03:03:08.786Z,1015.04
2018-02-09T03:04:08.733Z,1015.01
2018-02-09T03:05:08.675Z,1015.05
2018-02-09T03:06:08.618Z,1014.97
2018-02-09T03:07:08.564Z,1014.94
2018-02-09T03:08:08.505Z,1014.96
2018-02-09T03:09:08.448Z,1014.92
2018-02-09T03:10:08.393Z,1014.93
2018-02-09T03:11:08.336Z,1014.93
2018-02-09T03:12:08.279Z,1014.90
2018-02-09T03:13:08.423Z,1014.92
2018-02-09T03:14:08.167Z,1014.87
2018-02-09T03:15:08.110Z,1014.84
2018-02-09T03:16:08.054Z,1014.83
2018-02-09T03:17:07.998Z,1014.84
2018-02-09T03:18:07.942Z,1014.81
2018-02-09T03:19:07.886Z,1014.78
2018-02-09T03:20:07.829Z,1014.79
2018-02-09T03:21:07.773Z,1014.79
2018-02-09T03:22:07.716Z,1014.74
2018-02-09T03:23:07.661Z,1014.72
2018-02-09T03:24:07.604Z,1014.74
2018-02-09T03:25:07.548Z,1014.71
2018-02-09T03:26:07.493Z,1014.72
2018-02-09T03:27:07.435Z,1014.70
2018-02-09T03:28:07.381Z,1014.69
2018-02-09T03:29:07.322Z,1014.65
2018-02-09T03:30:07.267Z,1014.70
2018-02-09T03:31:07.211Z,1014.67
2018-02-09T03:32:07.153Z,1014.66
2018-02-09T03:33:07.097Z,1014.60
2018-02-09T03:34:07.042Z,1014.64
2018-02-09T03:35:06.987Z,1014.63
2018-02-09T03:36:06.928Z,1014.66
2018-02-09T03:37:06.872Z,1014.65
2018-02-09T03:38:06.816Z,1014.66
2018-02-09T03:39:06.760Z,1014.70
2018-02-09T03:40:06.703Z,1014.71
2018-02-09T03:41:06.647Z,1014.66
2018-02-09T03:42:06.590Z,1014.66
2018-02-09T03:43:06.543Z,1014.68
2018-02-09T03:44:06.477Z,1014.65
2018-02-09T03:45:06.421Z,1014.66
2018-02-09T03:46:06.367Z,1014.61
2018-02-09T03:47:06.309Z,1014.66
2018-02-09T03:48:06.253Z,1014.67
2018-02-09T03:49:06.296Z,1014.69
2018-02-09T03:50:06.141Z,1014.70
2018-02-09T03:51:06.084Z,1014.69
2018-02-09T03:52:06.027Z,1014.63
2018-02-09T03:53:05.971Z,1014.65
2018-02-09T03:54:05.918Z,1014.68
2018-02-09T03:55:05.859Z,1014.68
2018-02-09T03:56:05.802Z,1014.67
2018-02-09T03:57:05.748Z,1014.67
2018-02-09T03:58:05.690Z,1014.70
2018-02-09T03:59:05.634Z,1014.71
2018-02-09T04:00:05.627Z,1014.71
2018-02-09T04:01:05.521Z,1014.68
2018-02-09T04:02:05.464Z,1014.72
2018-02-09T04:03:05.408Z,1014.72
2018-02-09T04:04:05.351Z,1014.69
2018-02-09T04:05:05.295Z,1014.69
2018-02-09T04:06:05.239Z,1014.70
2018-02-09T04:07:05.184Z,1014.70
2018-02-09T04:08:05.126Z,1014.66
2018-02-09T04:09:05.075Z,1014.71
2018-02-09T04:10:05.013Z,1014.67
2018-02-09T04:11:04.958Z,1014.66
2018-02-09T04:12:04.900Z,1014.67
2018-02-09T04:13:04.843Z,1014.64
2018-02-09T04:14:04.789Z,1014.62
2018-02-09T04:15:04.733Z,1014.60
2018-02-09T04:16:04.674Z,1014.62
2018-02-09T04:17:04.618Z,1014.62
2018-02-09T04:18:04.562Z,1014.65
2018-02-09T04:19:04.506Z,1014.61
2018-02-09T04:20:04.449Z,1014.57
2018-02-09T04:21:04.392Z,1014.61
2018-02-09T04:22:04.336Z,1014.63
2018-02-09T04:23:04.280Z,1014.59
2018-02-09T04:24:04.223Z,1014.58
2018-02-09T04:25:04.167Z,1014.58
2018-02-09T04:26:04.110Z,1014.54
2018-02-09T04:27:04.054Z,1014.55
2018-02-09T04:28:03.997Z,1014.55
2018-02-09T04:29:03.941Z,1014.54
2018-02-09T04:30:03.885Z,1014.55
2018-02-09T04:31:03.829Z,1014.56
2018-02-09T04:32:03.772Z,1014.56
2018-02-09T04:33:03.715Z,1014.54
2018-02-09T04:34:04.109Z,1014.60
2018-02-09T04:35:03.602Z,1014.53
2018-02-09T04:36:03.545Z,1014.58
2018-02-09T04:37:03.939Z,1014.55
2018-02-09T04:38:03.832Z,1014.56
2018-02-09T04:39:03.729Z,1014.61
2018-02-09T04:40:03.719Z,1014.53
2018-02-09T04:41:03.613Z,1014.54
2018-02-09T04:42:03.456Z,1014.55
2018-02-09T04:43:03.350Z,1014.53
2018-02-09T04:44:03.293Z,1014.51
2018-02-09T04:45:03.289Z,1014.49
2018-02-09T04:46:03.180Z,1014.51
2018-02-09T04:47:03.074Z,1014.53
2018-02-09T04:48:02.917Z,1014.50
2018-02-09T04:49:02.810Z,1014.48
2018-02-09T04:50:02.805Z,1014.49
2018-02-09T04:51:02.698Z,1014.50
2018-02-09T04:52:02.641Z,1014.51
2018-02-09T04:53:02.584Z,1014.51
2018-02-09T04:54:02.528Z,1014.49
2018-02-09T04:55:02.472Z,1014.49
2018-02-09T04:56:02.416Z,1014.50
2018-02-09T04:57:02.359Z,1014.53
2018-02-09T04:58:02.303Z,1014.49
2018-02-09T04:59:02.246Z,1014.48
2018-02-09T05:00:02.189Z,1014.45
2018-02-09T05:01:02.133Z,1014.43
2018-02-09T05:02:02.077Z,1014.47
2018-02-09T05:03:02.023Z,1014.45
2018-02-09T05:04:01.963Z,1014.46
2018-02-09T05:05:01.908Z,1014.46
2018-02-09T05:06:01.852Z,1014.44
2018-02-09T05:07:01.802Z,1014.42
2018-02-09T05:08:01.745Z,1014.46
2018-02-09T05:09:01.684Z,1014.46
2018-02-09T05:10:01.626Z,1014.44
2018-02-09T05:11:01.571Z,1014.47
2018-02-09T05:12:01.514Z,1014.47
2018-02-09T05:13:01.458Z,1014.43
2018-02-09T05:14:01.401Z,1014.48
2018-02-09T05:15:01.346Z,1014.50
2018-02-09T05:16:01.289Z,1014.49
2018-02-09T05:17:01.233Z,1014.47
2018-02-09T05:18:01.177Z,1014.50
2018-02-09T05:19:01.121Z,1014.50
2018-02-09T05:20:01.064Z,1014.51
2018-02-09T05:21:01.107Z,1014.50
2018-02-09T05:22:00.952Z,1014.45
2018-02-09T05:23:00.895Z,1014.50
2018-02-09T05:24:00.838Z,1014.49
2018-02-09T05:25:00.783Z,1014.44
2018-02-09T05:26:00.726Z,1014.45
2018-02-09T05:27:00.670Z,1014.42
2018-02-09T05:28:00.614Z,1014.44
2018-02-09T05:29:00.557Z,1014.41
2018-02-09T05:30:00.500Z,1014.44
2018-02-09T05:31:00.446Z,1014.45
2018-02-09T05:32:00.388Z,1014.46
2018-02-09T05:33:00.332Z,1014.40
2018-02-09T05:34:00.275Z,1014.42
2018-02-09T05:35:00.220Z,1014.43
2018-02-09T05:36:00.162Z,1014.41
2018-02-09T05:37:00.107Z,1014.37
2018-02-09T05:38:00.051Z,1014.39
2018-02-09T05:38:59.994Z,1014.37
2018-02-09T05:39:59.937Z,1014.38
2018-02-09T05:40:59.881Z,1014.36
2018-02-09T05:41:59.824Z,1014.34
2018-02-09T05:42:59.770Z,1014.36
2018-02-09T05:43:59.712Z,1014.36
2018-02-09T05:44:59.655Z,1014.35
2018-02-09T05:45:59.803Z,1014.39
2018-02-09T05:46:59.543Z,1014.37
2018-02-09T05:47:59.487Z,1014.33
2018-02-09T05:48:59.581Z,1014.35
2018-02-09T05:49:59.375Z,1014.35
2018-02-09T05:50:59.318Z,1014.33
2018-02-09T05:51:59.262Z,1014.31
2018-02-09T05:52:59.206Z,1014.32
2018-02-09T05:53:59.150Z,1014.29
2018-02-09T05:54:59.094Z,1014.26
2018-02-09T05:55:59.037Z,1014.26
2018-02-09T05:56:58.984Z,1014.24
2018-02-09T05:57:58.925Z,1014.26
2018-02-09T05:58:58.869Z,1014.22
2018-02-09T05:59:58.812Z,1014.22
2018-02-09T06:00:58.756Z,1014.16
2018-02-09T06:01:58.701Z,1014.22
2018-02-09T06:02:58.644Z,1014.20
2018-02-09T06:03:58.588Z,1014.18
2018-02-09T06:04:58.532Z,1014.22
2018-02-09T06:05:58.476Z,1014.17
2018-02-09T06:06:58.420Z,1014.20
2018-02-09T06:07:58.363Z,1014.15
2018-02-09T06:08:58.307Z,1014.16
2018-02-09T06:09:58.251Z,1014.23
2018-02-09T06:10:58.195Z,1014.15
2018-02-09T06:11:58.143Z,1014.20
2018-02-09T06:12:58.081Z,1014.19
2018-02-09T06:13:58.026Z,1014.24
2018-02-09T06:14:57.972Z,1014.20
2018-02-09T06:15:57.914Z,1014.19
2018-02-09T06:16:58.060Z,1014.15
2018-02-09T06:17:57.802Z,1014.13
2018-02-09T06:18:57.746Z,1014.18
2018-02-09T06:19:57.689Z,1014.17
2018-02-09T06:20:57.634Z,1014.21
2018-02-09T06:21:57.585Z,1014.19
2018-02-09T06:22:57.521Z,1014.18
2018-02-09T06:23:57.464Z,1014.20
2018-02-09T06:24:57.411Z,1014.23
2018-02-09T06:25:57.352Z,1014.22
2018-02-09T06:26:57.296Z,1014.21
2018-02-09T06:27:57.239Z,1014.22
2018-02-09T06:28:57.186Z,1014.25
2018-02-09T06:29:57.127Z,1014.22
2018-02-09T06:30:57.071Z,1014.19
2018-02-09T06:31:57.014Z,1014.22
2018-02-09T06:32:56.958Z,1014.23
2018-02-09T06:33:56.903Z,1014.24
2018-02-09T06:34:56.851Z,1014.27
2018-02-09T06:35:56.790Z,1014.26
2018-02-09T06:36:56.734Z,1014.24
2018-02-09T06:37:56.679Z,1014.23
2018-02-09T06:38:56.623Z,1014.20
2018-02-09T06:39:56.566Z,1014.16
2018-02-09T06:40:56.510Z,1014.20
2018-02-09T06:41:56.454Z,1014.19
2018-02-09T06:42:56.399Z,1014.22
2018-02-09T06:43:56.342Z,1014.17
2018-02-09T06:44:56.287Z,1014.21
2018-02-09T06:45:56.231Z,1014.20
2018-02-09T06:46:56.178Z,1014.20
2018-02-09T06:47:56.119Z,1014.20
2018-02-09T06:48:56.067Z,1014.19
2018-02-09T06:49:56.008Z,1014.19
2018-02-09T06:50:55.952Z,1014.24
2018-02-09T06:51:55.896Z,1014.23
2018-02-09T06:52:55.840Z,1014.21
2018-02-09T06:53:55.785Z,1014.20
2018-02-09T06:54:55.733Z,1014.21
2018-02-09T06:55:55.673Z,1014.25
2018-02-09T06:56:55.618Z,1014.24
2018-02-09T06:57:55.562Z,1014.26
2018-02-09T06:58:55.507Z,1014.24
2018-02-09T06:59:55.451Z,1014.27
2018-02-09T07:00:55.396Z,1014.28
2018-02-09T07:01:55.390Z,1014.28
2018-02-09T07:02:55.286Z,1014.26
2018-02-09T07:03:55.229Z,1014.29
2018-02-09T07:04:55.173Z,1014.28
2018-02-09T07:05:55.119Z,1014.32
2018-02-09T07:06:55.064Z,1014.35
2018-02-09T07:07:55.008Z,1014.34
2018-02-09T07:08:54.953Z,1014.35
2018-02-09T07:09:54.900Z,1014.36
2018-02-09T07:10:54.847Z,1014.33
2018-02-09T07:11:54.786Z,1014.37
2018-02-09T07:12:54.732Z,1014.32
2018-02-09T07:13:54.677Z,1014.38
2018-02-09T07:14:54.622Z,1014.37
2018-02-09T07:15:54.567Z,1014.38
2018-02-09T07:16:54.512Z,1014.38
2018-02-09T07:17:54.457Z,1014.43
2018-02-09T07:18:54.402Z,1014.37
2018-02-09T07:19:54.347Z,1014.40
2018-02-09T07:20:54.292Z,1014.44
2018-02-09T07:21:54.237Z,1014.41
2018-02-09T07:22:54.183Z,1014.41
2018-02-09T07:23:54.127Z,1014.41
2018-02-09T07:24:54.072Z,1014.40
2018-02-09T07:25:54.018Z,1014.41
2018-02-09T07:26:53.964Z,1014.35
2018-02-09T07:27:53.910Z,1014.33
2018-02-09T07:28:53.854Z,1014.32
2018-02-09T07:29:53.799Z,1014.30
2018-02-09T07:30:53.745Z,1014.29
2018-02-09T07:31:53.689Z,1014.27
2018-02-09T07:32:53.637Z,1014.25
2018-02-09T07:33:53.580Z,1014.28
2018-02-09T07:34:53.526Z,1014.25
2018-02-09T07:35:53.471Z,1014.26
2018-02-09T07:36:53.419Z,1014.25
2018-02-09T07:37:53.363Z,1014.27
2018-02-09T07:38:53.309Z,1014.23
2018-02-09T07:39:53.255Z,1014.23
2018-02-09T09:19:21.057Z,1014.09
2018-02-09T09:20:21.007Z,1014.12
2018-02-09T09:21:20.957Z,1014.09
2018-02-09T09:22:20.908Z,1014.05
2018-02-09T09:23:20.859Z,1014.07
2018-02-09T09:24:20.811Z,1014.05
2018-02-09T09:25:20.764Z,1014.06
2018-02-09T09:26:20.714Z,1014.05
2018-02-09T09:27:20.666Z,1013.99
2018-02-09T09:28:20.617Z,1014.00
2018-02-09T09:29:20.569Z,1014.03
2018-02-09T09:30:20.521Z,1014.02
2018-02-09T09:31:20.480Z,1014.03
2018-02-09T09:32:20.427Z,1014.00
2018-02-09T09:33:20.378Z,1014.05
2018-02-09T09:34:20.336Z,1013.98
2018-02-09T09:35:20.284Z,1013.96
2018-02-09T09:36:20.237Z,1013.96
2018-02-09T09:37:20.189Z,1013.99
2018-02-09T09:38:20.141Z,1013.95
2018-02-09T09:39:20.099Z,1013.94
2018-02-09T09:40:20.051Z,1013.94
2018-02-09T09:41:20.006Z,1013.91
2018-02-09T09:42:19.955Z,1013.90
2018-02-09T09:43:19.909Z,1013.89
2018-02-09T09:44:19.863Z,1013.85
2018-02-09T09:45:19.816Z,1013.88
2018-02-09T09:46:19.769Z,1013.87
2018-02-09T09:47:19.722Z,1013.80
2018-02-09T09:48:19.676Z,1013.78
2018-02-09T09:49:19.630Z,1013.79
2018-02-09T09:50:19.580Z,1013.79
2018-02-09T09:51:19.534Z,1013.81
2018-02-09T09:52:19.485Z,1013.80
2018-02-09T09:53:19.437Z,1013.84
2018-02-09T09:54:19.442Z,1013.83
2018-02-09T09:55:19.341Z,1013.79
2018-02-09T09:56:19.295Z,1013.74
2018-02-09T09:57:19.244Z,1013.79
2018-02-09T09:58:19.195Z,1013.76
2018-02-09T09:59:19.146Z,1013.65
2018-02-09T10:00:19.097Z,1013.69
2018-02-09T10:01:19.064Z,1013.69
2018-02-09T10:02:18.998Z,1013.69
2018-02-09T10:03:18.948Z,1013.70
2018-02-09T10:04:18.899Z,1013.67
2018-02-09T10:05:18.848Z,1013.65
2018-02-09T10:06:18.798Z,1013.71
2018-02-09T10:07:18.750Z,1013.67
2018-02-09T10:08:18.699Z,1013.68
2018-02-09T10:09:18.650Z,1013.62
2018-02-09T10:10:18.600Z,1013.62
2018-02-09T10:11:18.549Z,1013.59
2018-02-09T10:12:18.499Z,1013.59
2018-02-09T10:13:18.451Z,1013.63
2018-02-09T10:14:18.398Z,1013.66
2018-02-09T10:15:18.349Z,1013.67
2018-02-09T10:16:18.298Z,1013.57
2018-02-09T10:17:18.247Z,1013.64
2018-02-09T10:18:18.197Z,1013.53
2018-02-09T10:19:18.147Z,1013.58
2018-02-09T10:20:18.097Z,1013.57
2018-02-09T10:21:18.046Z,1013.59
2018-02-09T10:22:17.995Z,1013.52
2018-02-09T10:23:17.945Z,1013.52
2018-02-09T10:24:17.895Z,1013.53
2018-02-09T10:25:17.843Z,1013.51
2018-02-09T10:26:17.796Z,1013.50
2018-02-09T10:27:17.743Z,1013.52
2018-02-09T10:28:17.691Z,1013.51
2018-02-09T10:29:17.640Z,1013.48
2018-02-09T10:30:17.589Z,1013.56
2018-02-09T10:31:17.539Z,1013.60
2018-02-09T10:32:17.488Z,1013.60
2018-02-09T10:33:17.436Z,1013.49
2018-02-09T10:34:17.384Z,1013.53
2018-02-09T10:35:17.335Z,1013.52
2018-02-09T10:36:17.285Z,1013.45
2018-02-09T10:37:17.233Z,1013.52
2018-02-09T10:38:17.182Z,1013.50
2018-02-09T10:39:17.132Z,1013.53
2018-02-09T10:40:17.082Z,1013.49
2018-02-09T10:41:17.029Z,1013.42
2018-02-09T10:42:16.978Z,1013.39
2018-02-09T10:43:16.929Z,1013.36
2018-02-09T10:44:16.876Z,1013.45
2018-02-09T10:45:16.825Z,1013.44
2018-02-09T10:46:16.774Z,1013.38
2018-02-09T10:47:16.724Z,1013.39
2018-02-09T10:48:16.722Z,1013.35
2018-02-09T10:49:16.621Z,1013.37
2018-02-09T10:50:16.620Z,1013.42
2018-02-09T10:51:16.524Z,1013.37
2018-02-09T10:52:16.468Z,1013.37
2018-02-09T10:53:16.416Z,1013.37
2018-02-09T10:54:16.372Z,1013.37
2018-02-09T10:55:16.315Z,1013.37
2018-02-09T10:56:16.264Z,1013.37
2018-02-09T10:57:16.212Z,1013.33
2018-02-09T10:58:16.262Z,1013.33
2018-02-09T10:59:16.111Z,1013.29
2018-02-09T11:00:16.060Z,1013.31
2018-02-09T11:01:16.008Z,1013.27
2018-02-09T11:02:15.957Z,1013.27
2018-02-09T11:03:15.906Z,1013.29
2018-02-09T11:04:15.856Z,1013.29
2018-02-09T11:05:15.803Z,1013.27
2018-02-09T11:06:15.754Z,1013.25
2018-02-09T11:07:15.702Z,1013.20
2018-02-09T11:08:15.651Z,1013.25
2018-02-09T11:09:15.599Z,1013.25
2018-02-09T11:10:15.548Z,1013.25
2018-02-09T11:11:15.498Z,1013.24
2018-02-09T11:12:15.465Z,1013.23
2018-02-09T11:13:15.394Z,1013.24
2018-02-09T11:14:15.343Z,1013.28
2018-02-09T11:15:15.292Z,1013.26
2018-02-09T11:16:15.240Z,1013.28
2018-02-09T11:17:15.188Z,1013.34
2018-02-09T11:18:15.137Z,1013.26
2018-02-09T11:19:15.086Z,1013.29
2018-02-09T11:20:15.037Z,1013.23
2018-02-09T11:21:14.982Z,1013.24
2018-02-09T11:22:14.931Z,1013.31
2018-02-09T11:23:14.879Z,1013.27
2018-02-09T11:24:14.829Z,1013.26
2018-02-09T11:25:14.776Z,1013.21
2018-02-09T11:26:14.724Z,1013.17
2018-02-09T11:27:14.673Z,1013.18
2018-02-09T11:28:14.622Z,1013.18
2018-02-09T11:29:14.569Z,1013.19
2018-02-09T11:30:14.518Z,1013.17
2018-02-09T11:31:14.467Z,1013.22
2018-02-09T11:32:14.416Z,1013.25
2018-02-09T11:33:14.364Z,1013.25
2018-02-09T11:34:14.312Z,1013.26
2018-02-09T11:35:14.261Z,1013.24
2018-02-09T11:36:14.211Z,1013.19
2018-02-09T11:37:14.158Z,1013.21
2018-02-09T11:38:14.113Z,1013.24
2018-02-09T11:39:14.056Z,1013.19
2018-02-09T11:40:14.020Z,1013.17
2018-02-09T11:41:13.955Z,1013.15
2018-02-09T11:42:13.901Z,1013.17
2018-02-09T11:43:13.850Z,1013.16
2018-02-09T11:44:13.799Z,1013.19
2018-02-09T11:45:13.747Z,1013.16
2018-02-09T11:46:13.696Z,1013.17
2018-02-09T11:47:13.643Z,1013.17
2018-02-09T11:48:13.600Z,1013.14
2018-02-09T11:49:13.542Z,1013.06
2018-02-09T11:50:13.490Z,1013.10
2018-02-09T11:51:13.439Z,1013.05
2018-02-09T11:52:13.389Z,1013.08
2018-02-09T11:53:13.347Z,1013.02
2018-02-09T11:54:13.291Z,1013.04
2018-02-09T11:55:13.235Z,1012.98
2018-02-09T11:56:13.183Z,1012.99
2018-02-09T11:57:13.131Z,1012.96
2018-02-09T11:58:13.080Z,1012.96
2018-02-09T11:59:13.030Z,1012.92
2018-02-09T12:00:12.978Z,1012.94
2018-02-09T12:01:12.926Z,1012.94
2018-02-09T12:02:12.875Z,1012.93
2018-02-09T12:03:12.823Z,1012.90
2018-02-09T12:04:12.773Z,1012.87
2018-02-09T12:05:12.721Z,1012.90
2018-02-09T12:06:12.670Z,1012.91
2018-02-09T12:07:12.619Z,1012.88
2018-02-09T12:08:12.567Z,1012.89
2018-02-09T12:09:12.521Z,1012.87
2018-02-09T12:10:12.465Z,1012.83
2018-02-09T12:11:12.415Z,1012.90
2018-02-09T12:12:12.364Z,1012.88
2018-02-09T12:13:12.312Z,1012.91
2018-02-09T12:14:12.261Z,1012.88
2018-02-09T12:15:12.211Z,1012.89
2018-02-09T12:16:12.160Z,1012.84
2018-02-09T12:17:12.108Z,1012.82
2018-02-09T12:18:12.057Z,1012.79
2018-02-09T12:19:12.007Z,1012.79
2018-02-09T12:20:11.956Z,1012.70
2018-02-09T12:21:11.905Z,1012.76
2018-02-09T12:22:11.854Z,1012.79
2018-02-09T12:23:11.806Z,1012.81
2018-02-09T12:24:11.753Z,1012.79
2018-02-09T12:25:11.701Z,1012.78
2018-02-09T12:26:11.651Z,1012.79
2018-02-09T12:27:11.602Z,1012.74
2018-02-09T12:28:11.550Z,1012.70
2018-02-09T12:29:11.499Z,1012.73
2018-02-09T12:30:11.449Z,1012.70
2018-02-09T12:31:11.398Z,1012.69
2018-02-09T12:32:11.348Z,1012.71
2018-02-09T12:33:11.297Z,1012.64
2018-02-09T12:34:11.247Z,1012.62
2018-02-09T12:35:11.198Z,1012.60
2018-02-09T12:36:11.147Z,1012.57
2018-02-09T12:37:11.096Z,1012.58
2018-02-09T12:38:11.047Z,1012.61
2018-02-09T12:39:10.996Z,1012.59
2018-02-09T12:40:10.945Z,1012.58
2018-02-09T12:41:10.894Z,1012.64
2018-02-09T12:42:10.844Z,1012.60
2018-02-09T12:43:10.794Z,1012.57
2018-02-09T12:44:10.744Z,1012.57
2018-02-09T12:45:10.692Z,1012.48
2018-02-09T12:46:10.642Z,1012.51
2018-02-09T12:47:10.592Z,1012.51
2018-02-09T12:48:10.542Z,1012.46
2018-02-09T12:49:10.490Z,1012.42
2018-02-09T12:50:10.440Z,1012.44
2018-02-09T12:51:10.389Z,1012.49
2018-02-09T12:52:10.342Z,1012.44
2018-02-09T12:53:10.290Z,1012.42
2018-02-09T12:54:10.237Z,1012.44
2018-02-09T12:55:10.221Z,1012.40
2018-02-09T12:56:10.136Z,1012.34
2018-02-09T12:57:10.084Z,1012.31
2018-02-09T12:58:10.034Z,1012.33
2018-02-09T12:59:09.985Z,1012.31
2018-02-09T13:00:09.933Z,1012.34
2018-02-09T13:01:09.881Z,1012.34
2018-02-09T13:02:09.833Z,1012.24
2018-02-09T13:03:09.779Z,1012.21
2018-02-09T13:04:09.729Z,1012.22
2018-02-09T13:05:09.676Z,1012.20
2018-02-09T13:06:09.625Z,1012.19
2018-02-09T13:07:09.577Z,1012.15
2018-02-09T13:08:09.523Z,1012.10
2018-02-09T13:09:09.470Z,1012.14
2018-02-09T13:10:09.420Z,1012.14
2018-02-09T13:11:09.368Z,1012.08
2018-02-09T13:12:09.317Z,1012.08
2018-02-09T13:13:09.265Z,1012.08
2018-02-09T13:14:09.213Z,1012.02
2018-02-09T13:15:09.160Z,1012.03
2018-02-09T13:16:09.112Z,1012.03
2018-02-09T13:17:09.058Z,1012.04
2018-02-09T13:18:09.006Z,1012.05
2018-02-09T13:19:08.963Z,1012.08
2018-02-09T13:20:08.903Z,1012.00
2018-02-09T13:21:08.851Z,1012.08
2018-02-09T13:22:08.800Z,1012.04
2018-02-09T13:23:08.748Z,1012.00
2018-02-09T13:24:08.696Z,1012.01
2018-02-09T13:25:08.651Z,1011.95
2018-02-09T13:26:08.593Z,1011.99
2018-02-09T13:27:08.540Z,1011.93
2018-02-09T13:28:08.489Z,1011.92
2018-02-09T13:29:08.437Z,1011.91
2018-02-09T13:30:08.384Z,1011.92
2018-02-09T13:31:08.332Z,1011.87
2018-02-09T13:32:08.281Z,1011.87
2018-02-09T13:33:08.226Z,1011.87
2018-02-09T13:34:08.176Z,1011.88
2018-02-09T13:35:08.124Z,1011.84
2018-02-09T13:36:08.071Z,1011.86
2018-02-09T13:37:08.020Z,1011.89
2018-02-09T13:38:07.968Z,1011.83
2018-02-09T13:39:07.916Z,1011.77
2018-02-09T13:40:07.864Z,1011.79
2018-02-09T13:41:07.811Z,1011.82
2018-02-09T13:42:07.759Z,1011.84
2018-02-09T13:43:07.707Z,1011.79